Time;durP1;ratioP1;P1;durP2;ratioP2;P2;SDS_P1;SDS_P2;PMS_P1;PMS_P2;Temp;Humidity;BMP_temperature;BMP_pressure;BME280_temperature;BME280_humidity;BME280_pressure;Samples;Min_cycle;Max_cycle;Signal;HPM_P1;HPM_P2
2022/05/02 00:00:36;;;;;;;2.37;2.07;;;;;;;6.14;72.89;95825.73;1785983;80;21090;-65
2022/05/02 00:03:04;;;;;;;2.87;1.80;;;;;;;6.09;72.38;95827.91;1786901;80;20983;-65
2022/05/02 00:05:31;;;;;;;2.60;1.97;;;;;;;5.98;72.46;95829.20;1787244;80;21000;-65
2022/05/02 00:07:58;;;;;;;3.00;2.00;;;;;;;5.88;72.60;95832.19;1787068;80;21500;-65
2022/05/02 00:10:24;;;;;;;2.23;2.00;;;;;;;5.79;72.69;95829.09;1786715;80;21003;-65
2022/05/02 00:12:51;;;;;;;2.63;2.10;;;;;;;5.80;72.99;95830.86;1788205;80;21453;-65
2022/05/02 00:15:17;;;;;;;3.60;2.37;;;;;;;5.84;72.85;95829.11;1795270;80;21146;-65
2022/05/02 00:17:58;;;;;;;3.03;2.50;;;;;;;5.97;73.10;95828.34;1795424;80;21045;-66
2022/05/02 00:20:33;;;;;;;2.63;2.20;;;;;;;5.94;72.43;95827.44;1795434;80;20971;-65
2022/05/02 00:23:04;;;;;;;4.20;2.00;;;;;;;5.92;72.30;95824.80;1795312;80;21017;-65
2022/05/02 00:25:31;;;;;;;2.27;2.00;;;;;;;5.86;72.55;95828.25;1795348;80;21011;-66
2022/05/02 00:27:58;;;;;;;2.43;1.80;;;;;;;5.80;72.54;95827.38;1795502;80;21014;-65
2022/05/02 00:30:26;;;;;;;4.03;2.30;;;;;;;5.62;72.54;95830.35;1795207;80;21129;-66
2022/05/02 00:32:53;;;;;;;5.23;2.43;;;;;;;5.55;72.60;95833.80;1795347;80;21495;-66
2022/05/02 00:35:20;;;;;;;2.80;2.20;;;;;;;5.53;73.18;95829.43;1795563;80;20979;-65
2022/05/02 00:37:47;;;;;;;3.17;2.40;;;;;;;5.50;74.30;95831.59;1795446;80;20943;-66
2022/05/02 00:40:16;;;;;;;3.13;2.00;;;;;;;5.52;73.19;95831.59;1795546;80;20931;-66
2022/05/02 00:42:45;;;;;;;4.57;2.67;;;;;;;5.53;73.17;95835.97;1795553;80;20975;-65
2022/05/02 00:45:14;;;;;;;3.13;2.60;;;;;;;5.50;72.95;95832.91;1795436;80;20974;-65
2022/05/02 00:47:41;;;;;;;3.07;2.03;;;;;;;5.47;72.68;95832.91;1795441;80;21086;-65
2022/05/02 00:50:10;;;;;;;2.33;2.07;;;;;;;5.46;73.52;95832.87;1795592;80;20967;-65
2022/05/02 00:52:37;;;;;;;2.80;2.60;;;;;;;5.42;73.60;95837.23;1795233;80;21506;-65
2022/05/02 00:55:05;;;;;;;5.10;2.47;;;;;;;5.39;73.07;95835.48;1795282;80;21117;-65
2022/05/02 00:57:33;;;;;;;3.60;2.10;;;;;;;5.37;73.05;95833.28;1795438;80;21021;-66
2022/05/02 01:00:01;;;;;;;2.43;2.00;;;;;;;5.37;74.47;95837.20;1795215;80;20991;-65
2022/05/02 01:02:28;;;;;;;2.43;2.23;;;;;;;5.34;74.06;95838.50;1795397;80;20985;-65
2022/05/02 01:04:54;;;;;;;3.33;2.40;;;;;;;5.33;74.07;95836.73;1795010;80;21122;-65
2022/05/02 01:07:21;;;;;;;2.90;2.60;;;;;;;5.23;73.81;95843.22;1795632;80;21078;-65
2022/05/02 01:09:50;;;;;;;2.20;2.00;;;;;;;5.16;73.64;95848.40;1795591;80;21046;-65
2022/05/02 01:12:21;;;;;;;2.33;2.00;;;;;;;5.13;73.79;95848.83;1795259;80;21042;-65
2022/05/02 01:14:52;;;;;;;2.23;1.90;;;;;;;5.06;73.96;95842.66;1788248;80;20984;-65
2022/05/02 01:17:19;;;;;;;2.23;2.00;;;;;;;5.07;74.57;95843.57;1787130;80;21003;-65
2022/05/02 01:19:46;;;;;;;2.10;1.80;;;;;;;5.08;74.17;95839.63;1786910;80;21074;-65
2022/05/02 01:22:13;;;;;;;2.20;2.00;;;;;;;5.11;74.24;95838.78;1787188;80;21002;-65
2022/05/02 01:24:44;;;;;;;1.83;1.70;;;;;;;5.07;74.05;95836.59;1787223;80;20975;-65
2022/05/02 01:27:13;;;;;;;4.57;1.83;;;;;;;5.07;74.53;95835.28;1787021;80;21015;-65
2022/05/02 01:29:42;;;;;;;3.70;1.87;;;;;;;5.10;74.48;95840.52;1787123;80;21034;-65
2022/05/02 01:32:13;;;;;;;2.70;1.90;;;;;;;5.11;74.60;95842.27;1787166;80;21007;-65
2022/05/02 01:34:40;;;;;;;3.17;2.20;;;;;;;5.20;74.73;95843.64;1787004;80;21034;-65
2022/05/02 01:37:09;;;;;;;5.67;2.10;;;;;;;5.29;75.07;95831.47;1787029;80;21067;-65
2022/05/02 01:39:36;;;;;;;6.10;2.17;;;;;;;5.33;74.51;95835.87;1786915;80;21003;-65
2022/05/02 01:42:07;;;;;;;2.33;1.80;;;;;;;5.29;74.84;95836.70;1786868;80;21008;-65
2022/05/02 01:44:35;;;;;;;2.30;1.90;;;;;;;5.28;75.00;95837.59;1787176;80;20990;-65
2022/05/02 01:47:03;;;;;;;2.53;2.07;;;;;;;5.33;75.05;95844.59;1786989;80;21022;-65
2022/05/02 01:49:30;;;;;;;2.03;1.63;;;;;;;5.32;74.63;95838.06;1787031;80;21015;-65
2022/05/02 01:52:00;;;;;;;2.70;2.13;;;;;;;5.24;74.41;95841.94;1787017;80;21476;-65
2022/05/02 01:54:27;;;;;;;2.67;2.00;;;;;;;5.26;74.53;95836.70;1786921;80;21046;-65
2022/05/02 01:56:55;;;;;;;7.03;2.53;;;;;;;5.21;74.45;95838.84;1787372;80;21034;-65
2022/05/02 01:59:23;;;;;;;2.80;2.47;;;;;;;5.06;74.12;95842.66;1787060;80;20983;-65
2022/05/02 02:01:50;;;;;;;2.87;2.20;;;;;;;4.98;74.91;95837.38;1786644;80;21128;-65
2022/05/02 02:07:02;;;;;;;3.63;2.33;;;;;;;4.85;74.98;95836.86;1787180;80;20975;-65
2022/05/02 02:09:29;;;;;;;3.43;2.20;;;;;;;4.85;75.18;95837.30;1786560;80;21059;-65
2022/05/02 02:11:57;;;;;;;3.33;2.20;;;;;;;4.88;75.29;95834.27;1787148;80;20967;-65
2022/05/02 02:14:24;;;;;;;3.37;2.00;;;;;;;4.80;74.85;95834.65;1791308;80;21018;-65
2022/05/02 02:16:51;;;;;;;4.33;2.27;;;;;;;4.76;75.13;95837.69;1795150;80;21013;-65
2022/05/02 02:19:17;;;;;;;2.83;2.30;;;;;;;4.73;75.06;95836.77;1795440;80;20985;-65
2022/05/02 02:21:43;;;;;;;2.60;2.40;;;;;;;4.72;74.88;95837.20;1795586;80;21500;-65
2022/05/02 02:24:10;;;;;;;3.00;2.47;;;;;;;4.74;74.97;95843.33;1795405;80;20955;-65
2022/05/02 02:26:39;;;;;;;2.60;2.40;;;;;;;4.72;74.35;95840.26;1795256;80;21082;-65
2022/05/02 02:29:05;;;;;;;2.63;2.10;;;;;;;4.69;74.20;95840.23;1795188;80;21125;-66
2022/05/02 02:31:32;;;;;;;2.40;2.20;;;;;;;4.62;74.56;95838.44;1795774;80;21003;-65
2022/05/02 02:33:58;;;;;;;3.60;2.07;;;;;;;4.61;74.54;95841.48;1795656;80;21397;-65
2022/05/02 02:36:25;;;;;;;2.40;2.20;;;;;;;4.57;74.66;95838.39;1795508;80;21117;-65
2022/05/02 02:38:51;;;;;;;3.10;2.80;;;;;;;4.44;75.22;95839.16;1795662;80;20986;-65
2022/05/02 02:41:17;;;;;;;5.37;2.10;;;;;;;4.42;75.59;95844.35;1795474;80;20963;-65
2022/05/02 02:43:44;;;;;;;2.43;2.20;;;;;;;4.42;75.80;95840.44;1795353;80;20982;-65
2022/05/02 02:46:10;;;;;;;2.93;2.53;;;;;;;4.43;75.71;95843.91;1795557;80;21030;-65
2022/05/02 02:48:37;;;;;;;9.57;2.27;;;;;;;4.41;75.98;95840.00;1795537;80;21472;-65
2022/05/02 02:51:04;;;;;;;4.47;2.40;;;;;;;4.45;77.48;95843.06;1795226;80;21058;-65
2022/05/02 02:53:31;;;;;;;4.20;2.17;;;;;;;4.49;77.67;95846.60;1795306;80;21528;-65
2022/05/02 02:55:58;;;;;;;2.50;2.03;;;;;;;4.53;78.02;95844.44;1795070;80;21035;-65
2022/05/02 02:58:24;;;;;;;3.43;1.90;;;;;;;4.54;77.57;95851.00;1795469;80;21030;-65
2022/05/02 03:00:52;;;;;;;3.50;1.87;;;;;;;4.62;77.27;95843.66;1795531;80;21003;-65
2022/05/02 03:03:18;;;;;;;2.13;1.83;;;;;;;4.61;76.80;95845.81;1795573;80;20983;-65
2022/05/02 03:06:04;;;;;;;2.17;1.80;;;;;;;4.66;77.43;95850.23;1795188;80;21507;-65
2022/05/02 03:08:34;;;;;;;2.67;2.10;;;;;;;4.66;77.47;95849.34;1795623;80;21456;-65
2022/05/02 03:11:02;;;;;;;2.40;1.70;;;;;;;4.69;77.44;95846.77;1795369;80;21012;-65
2022/05/02 03:13:29;;;;;;;3.00;1.90;;;;;;;4.71;76.99;95845.92;1795420;80;21460;-66
2022/05/02 03:15:56;;;;;;;2.80;1.93;;;;;;;4.73;76.75;95853.31;1795679;80;20983;-65
2022/05/02 03:18:23;;;;;;;2.03;1.70;;;;;;;4.73;77.18;95853.76;1764474;80;20974;-65
2022/05/02 03:20:50;;;;;;;8.50;4.73;;;;;;;4.74;76.97;95852.48;1795253;80;21095;-65
2022/05/02 03:23:17;;;;;;;2.27;1.90;;;;;;;4.66;76.64;95851.95;1795763;80;21045;-65
2022/05/02 03:25:44;;;;;;;2.83;1.90;;;;;;;4.61;76.66;95848.02;1795290;80;21014;-65
2022/05/02 03:28:11;;;;;;;47.37;24.60;;;;;;;4.47;77.46;95850.50;1795569;80;21014;-65
2022/05/02 03:30:37;;;;;;;4.90;3.83;;;;;;;4.39;78.27;95848.25;1795652;80;21006;-65
2022/05/02 03:33:04;;;;;;;3.97;2.77;;;;;;;4.40;78.24;95850.42;1795502;80;21053;-65
2022/05/02 03:35:31;;;;;;;5.07;3.43;;;;;;;4.46;77.63;95853.08;1795418;80;21048;-65
2022/05/02 03:37:57;;;;;;;5.20;3.33;;;;;;;4.48;78.49;95853.54;1795543;80;20984;-65
2022/05/02 03:40:24;;;;;;;4.37;2.57;;;;;;;4.48;78.32;95856.59;1795160;80;21511;-65
2022/05/02 03:42:50;;;;;;;6.03;3.13;;;;;;;4.47;79.12;95851.80;1795756;80;20986;-65
2022/05/02 03:45:17;;;;;;;3.33;2.70;;;;;;;4.47;78.50;95850.50;1795260;80;21086;-65
2022/05/02 03:47:44;;;;;;;4.87;3.30;;;;;;;4.50;78.50;95861.41;1795470;80;20978;-65
2022/05/02 03:50:11;;;;;;;8.00;3.00;;;;;;;4.53;78.28;95860.98;1795167;80;21110;-65
2022/05/02 03:52:37;;;;;;;6.37;4.57;;;;;;;4.52;78.44;95855.33;1795526;80;20950;-65
2022/05/02 03:55:06;;;;;;;9.63;8.63;;;;;;;4.57;77.92;95859.30;1795161;80;21052;-65
2022/05/02 03:57:32;;;;;;;6.57;5.03;;;;;;;4.55;78.93;95856.66;1764448;80;21460;-65
2022/05/02 03:59:58;;;;;;;25.23;10.53;;;;;;;4.51;79.39;95863.14;1795188;80;20979;-65
2022/05/02 04:02:25;;;;;;;18.03;10.33;;;;;;;4.47;79.42;95862.25;1795193;80;21134;-65
2022/05/02 04:04:51;;;;;;;19.27;10.80;;;;;;;4.46;78.42;95856.59;1795402;80;20990;-65
2022/05/02 04:07:18;;;;;;;20.97;10.47;;;;;;;4.54;78.45;95862.76;1795456;80;21074;-68
2022/05/02 04:09:44;;;;;;;13.80;6.87;;;;;;;4.52;79.27;95861.86;1795701;80;21003;-65
2022/05/02 04:12:11;;;;;;;15.53;8.93;;;;;;;4.52;79.82;95864.47;1795442;80;21039;-65
2022/05/02 04:14:38;;;;;;;5.30;3.77;;;;;;;4.61;79.52;95852.34;1795358;80;21379;-65
2022/05/02 04:17:05;;;;;;;1.93;1.83;;;;;;;4.72;79.40;95863.34;1795547;80;21054;-66
2022/05/02 04:19:33;;;;;;;2.83;2.17;;;;;;;4.86;79.40;95859.95;1795498;80;21527;-66
2022/05/02 04:21:59;;;;;;;10.83;4.80;;;;;;;4.94;79.64;95860.47;1795439;80;21006;-65
2022/05/02 04:24:26;;;;;;;16.23;10.00;;;;;;;5.08;80.16;95864.92;1795536;80;21007;-66
2022/05/02 04:26:52;;;;;;;12.33;9.00;;;;;;;5.24;79.83;95857.63;1795373;80;20951;-65
2022/05/02 04:29:19;;;;;;;15.77;9.43;;;;;;;5.42;79.36;95862.09;1795283;80;21074;-65
2022/05/02 04:31:45;;;;;;;14.13;9.40;;;;;;;5.54;78.87;95857.34;1795144;80;21520;-65
2022/05/02 04:34:12;;;;;;;10.33;7.77;;;;;;;5.60;79.25;95850.41;1795596;80;21025;-66
2022/05/02 04:36:38;;;;;;;10.13;6.53;;;;;;;5.78;79.09;95855.28;1795391;80;21500;-65
2022/05/02 04:39:05;;;;;;;13.90;8.43;;;;;;;6.03;79.02;95851.05;1795382;80;21018;-65
2022/05/02 04:41:32;;;;;;;8.47;5.40;;;;;;;6.16;77.97;95848.02;1795560;80;21003;-65
2022/05/02 04:43:58;;;;;;;6.00;4.60;;;;;;;6.32;78.20;95848.48;1795381;80;21015;-66
2022/05/02 04:46:29;;;;;;;6.17;4.73;;;;;;;6.47;77.81;95848.50;1795353;80;21006;-66
2022/05/02 04:48:55;;;;;;;7.80;4.77;;;;;;;6.63;76.73;95839.37;1795486;80;20998;-66
2022/05/02 04:51:22;;;;;;;7.93;5.17;;;;;;;6.79;76.36;95839.80;1795022;80;21081;-66
2022/05/02 04:53:48;;;;;;;11.03;8.27;;;;;;;6.93;76.12;95841.13;1795593;80;20947;-65
2022/05/02 04:56:15;;;;;;;5.03;3.70;;;;;;;7.13;76.12;95838.45;1764195;80;21575;-64
2022/05/02 04:58:42;;;;;;;4.73;4.23;;;;;;;7.32;75.50;95841.94;1795382;80;21021;-65
2022/05/02 05:01:08;;;;;;;6.90;4.90;;;;;;;7.45;74.25;95841.02;1795666;80;21074;-65
2022/05/02 05:03:36;;;;;;;5.80;3.80;;;;;;;7.52;74.11;95841.89;1794346;80;21044;-68
2022/05/02 05:06:03;;;;;;;5.83;4.27;;;;;;;7.61;72.89;95840.56;1794655;80;21030;-67
2022/05/02 05:08:30;;;;;;;24.37;20.80;;;;;;;7.71;72.84;95840.06;1793786;80;20986;-68
2022/05/02 05:11:32;;;;;;;10.93;8.77;;;;;;;7.86;72.62;95837.82;1793936;80;21491;-68
2022/05/02 05:17:42;;;;;;;5.27;4.63;;;;;;;8.06;72.28;95832.03;1794817;80;20983;-65
2022/05/02 05:20:28;;;;;;;5.60;3.47;;;;;;;8.18;72.19;95833.73;1795548;80;20990;-65
2022/05/02 05:23:25;;;;;;;9.40;6.77;;;;;;;8.35;71.70;95829.70;1761459;80;21010;-72
2022/05/02 05:26:31;;;;;;;5.73;4.47;;;;;;;8.45;70.71;95830.10;1788378;80;21113;-72
2022/05/02 05:29:12;;;;;;;4.07;3.37;;;;;;;8.61;70.86;95831.73;1794359;80;21160;-69
2022/05/02 05:32:07;;;;;;;5.33;4.33;;;;;;;8.75;70.97;95818.48;1794988;80;21054;-66
2022/05/02 05:35:05;;;;;;;6.93;4.00;;;;;;;8.90;70.91;95814.86;1794858;80;21556;-66
2022/05/02 05:38:02;;;;;;;6.20;4.10;;;;;;;9.06;70.68;95805.92;1795273;80;20986;-67
2022/05/02 05:40:47;;;;;;;8.10;4.90;;;;;;;9.24;70.50;95804.01;1794699;80;21050;-68
2022/05/02 05:43:35;;;;;;;9.23;7.07;;;;;;;9.36;69.90;95804.34;1793159;80;21042;-65
2022/05/02 05:46:23;;;;;;;5.85;5.25;;;;;;;9.49;69.89;95808.58;1794742;80;21027;-68
2022/05/02 05:49:10;;;;;;;11.10;10.17;;;;;;;9.65;69.86;95803.58;1782347;80;21184;-67
2022/05/02 05:51:50;;;;;;;4.77;4.00;;;;;;;9.79;69.23;95799.45;1794459;80;21006;-68
2022/05/02 05:54:48;;;;;;;6.40;4.90;;;;;;;9.91;68.73;95794.48;1793442;80;21105;-69
2022/05/02 05:57:51;;;;;;;6.40;4.23;;;;;;;10.05;68.44;95799.55;1794032;80;21057;-67
2022/05/02 06:00:18;;;;;;;5.67;4.20;;;;;;;10.22;68.32;95794.92;1794647;80;21050;-66
2022/05/02 06:03:09;;;;;;;6.97;4.20;;;;;;;10.41;68.00;95796.91;1794795;80;21033;-66
2022/05/02 06:05:45;;;;;;;4.80;4.03;;;;;;;10.56;66.28;95794.03;1794391;80;21006;-66
2022/05/02 06:08:20;;;;;;;5.17;3.57;;;;;;;10.71;66.79;95788.97;1795119;80;21519;-67
2022/05/02 06:10:50;;;;;;;4.33;3.40;;;;;;;10.90;66.47;95782.92;1795592;80;21494;-68
2022/05/02 06:13:19;;;;;;;4.37;3.53;;;;;;;11.09;65.82;95782.59;1795246;80;21022;-70
2022/05/02 06:18:38;;;;;;;3.30;2.87;;;;;;;11.42;62.53;95785.09;1786761;80;21595;-68
2022/05/02 06:21:08;;;;;;;4.07;3.37;;;;;;;11.62;62.25;95788.22;1786569;80;21019;-68
2022/05/02 06:27:33;;;;;;;5.47;3.20;;;;;;;11.95;62.27;95784.97;1779448;80;21050;-67
2022/05/02 06:30:03;;;;;;;4.23;3.10;;;;;;;12.16;61.25;95778.34;1752482;82;21007;-68
2022/05/02 06:32:36;;;;;;;3.83;2.80;;;;;;;12.33;61.59;95780.16;1751853;82;21019;-67
2022/05/02 06:35:05;;;;;;;3.52;2.47;;;;;;;12.50;61.31;95777.14;1752408;82;21074;-66
2022/05/02 06:37:48;;;;;;;2.72;2.52;;;;;;;12.66;60.97;95773.21;1722785;82;21513;-67
2022/05/02 06:40:20;;;;;;;3.10;2.40;;;;;;;12.83;58.79;95770.63;1705246;82;21024;-68
2022/05/02 06:43:10;;;;;;;3.22;2.62;;;;;;;13.03;59.80;95766.13;1752103;82;21580;-64
2022/05/02 06:45:54;;;;;;;3.15;2.08;;;;;;;13.19;59.54;95758.22;1751992;82;20995;-69
2022/05/02 06:48:37;;;;;;;2.52;2.15;;;;;;;13.35;58.07;95757.38;1761441;80;21500;-65
2022/05/02 06:51:12;;;;;;;3.05;2.20;;;;;;;13.49;55.64;95759.21;1780761;80;21551;-72
2022/05/02 06:53:53;;;;;;;2.80;2.47;;;;;;;13.65;56.58;95757.00;1770005;81;20986;-66
2022/05/02 06:56:34;;;;;;;2.98;2.20;;;;;;;13.77;53.48;95760.63;1764202;80;21062;-68
2022/05/02 06:59:12;;;;;;;3.08;2.27;;;;;;;13.91;55.59;95759.36;1759429;81;21473;-71
2022/05/02 07:02:09;;;;;;;5.28;2.40;;;;;;;14.04;54.10;95760.77;1759677;81;21449;-69
2022/05/02 07:04:52;;;;;;;4.75;2.20;;;;;;;14.19;54.90;95754.99;1768924;81;21013;-68
2022/05/02 07:07:48;;;;;;;3.40;2.27;;;;;;;14.40;54.72;95756.11;1770446;81;20979;-69
2022/05/02 07:10:35;;;;;;;4.37;2.62;;;;;;;14.55;54.04;95753.47;1770778;81;21563;-69
2022/05/02 07:13:34;;;;;;;6.35;2.50;;;;;;;14.71;54.17;95750.72;1762098;80;21057;-69
2022/05/02 07:16:23;;;;;;;4.62;3.00;;;;;;;14.85;52.71;95754.27;1743825;81;21042;-69
2022/05/02 07:19:27;;;;;;;4.00;2.87;;;;;;;14.99;54.46;95744.50;1741862;81;20995;-69
2022/05/02 07:22:09;;;;;;;5.92;3.00;;;;;;;15.14;53.37;95752.42;1780268;81;21045;-69
2022/05/02 07:24:50;;;;;;;3.30;3.00;;;;;;;15.23;52.06;95752.59;1779736;81;21085;-69
2022/05/02 07:27:45;;;;;;;4.33;2.72;;;;;;;15.31;53.13;95747.86;1773218;80;21026;-72
2022/05/02 07:30:14;;;;;;;3.45;2.98;;;;;;;15.40;50.05;95746.70;1769427;80;20974;-68
2022/05/02 07:32:41;;;;;;;5.05;2.70;;;;;;;15.52;51.65;95744.91;1749167;82;21017;-69
2022/05/02 07:35:10;;;;;;;5.28;2.45;;;;;;;15.68;52.68;95745.25;1763576;80;20995;-70
2022/05/02 07:37:41;;;;;;;2.25;2.05;;;;;;;15.82;52.93;95739.44;1755439;81;21061;-70
2022/05/02 07:40:14;;;;;;;2.87;2.12;;;;;;;15.93;52.08;95742.13;1769054;80;20962;-72
2022/05/02 07:42:44;;;;;;;3.95;1.85;;;;;;;16.10;51.79;95739.27;1760210;81;21448;-68
2022/05/02 07:45:13;;;;;;;4.67;1.87;;;;;;;16.22;48.66;95741.47;1733577;83;21005;-65
2022/05/02 07:47:43;;;;;;;2.10;1.90;;;;;;;16.31;49.62;95744.26;1749314;82;21519;-68
2022/05/02 07:50:13;;;;;;;4.45;2.85;;;;;;;16.43;48.75;95746.45;1749073;82;21037;-68
2022/05/02 07:52:42;;;;;;;2.08;1.80;;;;;;;16.51;46.89;95748.81;1748964;82;21005;-67
2022/05/02 07:55:10;;;;;;;3.35;2.30;;;;;;;16.54;46.17;95741.55;1748912;81;20938;-66
2022/05/02 07:57:39;;;;;;;2.47;2.10;;;;;;;16.64;46.27;95735.40;1747924;82;21543;-66
2022/05/02 08:00:10;;;;;;;3.40;2.08;;;;;;;16.73;46.39;95738.14;1739179;81;22222;-67
2022/05/02 08:02:41;;;;;;;3.60;2.15;;;;;;;16.82;45.93;95736.48;1762528;81;21513;-65
2022/05/02 08:05:09;;;;;;;2.15;1.98;;;;;;;16.95;45.91;95732.84;1764263;81;21126;-65
2022/05/02 08:07:44;;;;;;;2.35;2.15;;;;;;;17.06;45.86;95737.28;1763806;81;21039;-66
2022/05/02 08:10:35;;;;;;;2.72;1.70;;;;;;;17.08;44.77;95736.28;1763776;81;21508;-66
2022/05/02 08:13:26;;;;;;;4.40;2.33;;;;;;;17.12;43.85;95729.01;1763929;81;21068;-67
2022/05/02 08:16:06;;;;;;;3.70;2.00;;;;;;;17.27;45.27;95736.36;1768643;81;21047;-67
2022/05/02 08:18:57;;;;;;;3.15;1.82;;;;;;;17.30;42.90;95726.02;1776412;81;21541;-67
2022/05/02 08:21:32;;;;;;;7.78;2.33;;;;;;;17.37;43.19;95723.50;1741564;82;21435;-67
2022/05/02 08:27:55;;;;;;;3.30;2.92;;;;;;;17.54;43.26;95721.44;1776538;81;21027;-67
2022/05/02 08:30:26;;;;;;;2.25;1.95;;;;;;;17.65;40.86;95710.28;1776421;81;21023;-68
2022/05/02 08:33:12;;;;;;;2.08;1.87;;;;;;;17.65;40.86;95710.28;1776361;81;21011;-68
2022/05/02 08:35:53;;;;;;;4.95;2.10;;;;;;;17.70;42.79;95708.27;1775815;81;21088;-68
2022/05/02 08:38:46;;;;;;;2.90;2.27;;;;;;;17.78;42.91;95702.12;1765385;81;21012;-67
2022/05/02 08:41:45;;;;;;;2.37;2.12;;;;;;;17.93;43.66;95697.92;1776370;81;21545;-65
2022/05/02 08:45:03;;;;;;;2.65;2.15;;;;;;;18.11;43.88;95698.88;1775290;81;21051;-67
2022/05/02 08:48:11;;;;;;;2.80;2.45;;;;;;;18.32;43.49;95696.98;1776083;81;21012;-67
2022/05/02 08:51:15;;;;;;;4.08;2.10;;;;;;;18.51;43.17;95688.97;1771480;81;21051;-68
2022/05/02 08:54:30;;;;;;;3.42;1.80;;;;;;;18.64;42.63;95683.89;1768246;81;21075;-67
2022/05/02 08:57:24;;;;;;;2.50;2.05;;;;;;;18.54;38.86;95680.80;1769867;81;21634;-68
2022/05/02 09:00:04;;;;;;;2.72;2.20;;;;;;;18.57;39.67;95674.86;1774476;81;21065;-68
2022/05/02 09:03:06;;;;;;;5.97;2.55;;;;;;;18.74;42.58;95677.16;1753290;81;20979;-68
2022/05/02 09:06:09;;;;;;;4.12;2.27;;;;;;;18.90;39.00;95669.26;1743474;82;21062;-68
2022/05/02 09:09:03;;;;;;;2.35;1.92;;;;;;;18.96;40.77;95669.83;1745219;82;21356;-66
2022/05/02 09:11:52;;;;;;;3.98;1.82;;;;;;;18.99;42.11;95676.83;1753121;82;21558;-67
2022/05/02 09:14:44;;;;;;;2.50;2.08;;;;;;;18.86;40.50;95667.23;1745477;82;21050;-66
2022/05/02 09:17:25;;;;;;;4.65;2.30;;;;;;;18.90;43.02;95666.14;1738023;82;21038;-66
2022/05/02 09:20:34;;;;;;;4.70;2.37;;;;;;;19.10;40.43;95661.57;1787238;80;21065;-67
2022/05/02 09:23:24;;;;;;;4.00;1.85;;;;;;;19.21;38.87;95656.07;1787300;80;20991;-67
2022/05/02 09:26:30;;;;;;;2.33;2.10;;;;;;;19.26;37.82;95649.16;1787448;80;20986;-67
2022/05/02 09:29:46;;;;;;;3.75;2.00;;;;;;;19.35;39.30;95650.02;1786554;80;21014;-67
2022/05/02 09:32:35;;;;;;;5.78;2.25;;;;;;;19.48;38.74;95652.92;1787664;80;21114;-67
2022/05/02 09:35:07;;;;;;;3.08;2.00;;;;;;;19.63;38.24;95653.89;1719291;80;21007;-67
2022/05/02 09:37:40;;;;;;;4.30;2.02;;;;;;;19.80;38.84;95651.69;1787338;80;21507;-67
2022/05/02 09:40:12;;;;;;;;;;;;;;;19.95;38.92;95646.83;1790457;80;21003;-67
2022/05/02 09:43:20;;;;;;;3.72;2.27;;;;;;;20.07;35.22;95639.47;1787346;80;20156;-67
2022/05/02 09:49:36;;;;;;;2.62;1.85;;;;;;;20.26;36.76;95629.94;1787712;80;20986;-67
2022/05/02 09:52:19;;;;;;;1.85;1.75;;;;;;;20.47;37.30;95637.72;1777693;80;21054;-67
2022/05/02 09:58:15;;;;;;;3.40;1.82;;;;;;;20.51;33.73;95621.83;1787734;80;20998;-67
2022/05/02 10:01:07;;;;;;;2.08;1.87;;;;;;;20.72;34.07;95620.63;1786727;80;21033;-67
2022/05/02 10:03:42;;;;;;;3.17;2.20;;;;;;;20.80;34.51;95620.19;1740929;82;21011;-67
2022/05/02 10:06:16;;;;;;;2.37;1.80;;;;;;;20.75;32.57;95616.42;1747717;81;21010;-67
2022/05/02 10:08:57;;;;;;;3.40;1.98;;;;;;;20.80;33.33;95614.82;1747773;82;21512;-67
2022/05/02 10:12:01;;;;;;;2.35;2.10;;;;;;;20.91;33.89;95602.97;1718119;83;21005;-67
2022/05/02 10:14:37;;;;;;;;;;;;;;;21.01;33.80;95597.06;1737305;83;21038;-67
2022/05/02 10:17:08;;;;;;;3.58;2.00;;;;;;;21.15;31.95;95599.80;1724355;83;20127;-67
2022/05/02 10:20:16;;;;;;;4.70;2.10;;;;;;;21.02;32.38;95598.81;1747855;82;21023;-67
2022/05/02 10:22:57;;;;;;;2.05;1.90;;;;;;;21.11;33.32;95596.41;1747888;82;20991;-67
2022/05/02 10:25:38;;;;;;;3.33;1.87;;;;;;;21.15;32.68;95597.97;1747641;82;21019;-67
2022/05/02 10:28:49;;;;;;;3.20;2.05;;;;;;;21.30;33.78;95604.72;1747202;82;20967;-67
2022/05/02 10:31:25;;;;;;;2.37;2.00;;;;;;;21.45;33.18;95601.61;1747178;82;21165;-67
2022/05/02 10:33:54;;;;;;;2.52;2.10;;;;;;;21.58;33.78;95602.57;1746378;82;20999;-67
2022/05/02 10:36:28;;;;;;;2.35;1.85;;;;;;;21.60;33.19;95596.63;1718150;83;21044;-67
2022/05/02 10:39:04;;;;;;;2.33;1.77;;;;;;;21.59;30.95;95587.69;1734907;83;21034;-67
2022/05/02 10:41:49;;;;;;;2.35;2.15;;;;;;;21.61;30.32;95591.63;1747504;82;21026;-66
2022/05/02 10:44:17;;;;;;;1.92;1.70;;;;;;;21.76;35.20;95582.61;1746709;82;21050;-66
2022/05/02 10:46:46;;;;;;;2.52;2.10;;;;;;;21.90;33.14;95575.05;1717983;83;21065;-67
2022/05/02 10:49:33;;;;;;;2.10;1.90;;;;;;;21.98;32.32;95583.95;1747491;82;21027;-67
2022/05/02 10:52:12;;;;;;;3.52;1.90;;;;;;;22.02;31.65;95578.30;1747592;81;21461;-67
2022/05/02 10:55:01;;;;;;;3.33;2.00;;;;;;;21.82;32.06;95581.36;1747797;82;21103;-67
2022/05/02 10:57:43;;;;;;;2.70;2.22;;;;;;;21.86;31.48;95575.33;1718066;83;21037;-67
2022/05/02 11:00:15;;;;;;;3.22;2.40;;;;;;;21.81;30.14;95564.38;1734083;83;21085;-68
2022/05/02 11:03:08;;;;;;;1.98;1.77;;;;;;;21.41;30.00;95567.36;1787681;80;21480;-68
2022/05/02 11:05:57;;;;;;;3.27;2.20;;;;;;;21.53;33.76;95571.13;1787912;80;20983;-67
2022/05/02 11:08:46;;;;;;;3.15;2.08;;;;;;;21.87;33.83;95569.84;1787554;80;21066;-67
2022/05/02 11:11:33;;;;;;;14.05;2.40;;;;;;;22.06;32.42;95564.16;1787710;80;21058;-67
2022/05/02 11:14:16;;;;;;;2.60;1.90;;;;;;;22.19;31.43;95561.09;1787545;80;21015;-67
2022/05/02 11:17:19;;;;;;;3.12;1.80;;;;;;;22.38;32.52;95555.39;1790022;80;21007;-67
2022/05/02 11:23:40;;;;;;;2.52;2.20;;;;;;;22.76;31.91;95555.14;1795527;80;21047;-67
2022/05/02 11:26:43;;;;;;;3.33;2.67;;;;;;;22.92;31.46;95554.95;1795775;80;21003;-67
2022/05/02 11:29:25;;;;;;;3.70;2.12;;;;;;;23.03;31.10;95547.92;1795486;80;21027;-67
2022/05/02 11:32:12;;;;;;;3.52;2.35;;;;;;;23.11;28.83;95539.31;1793714;80;20979;-67
2022/05/02 11:35:06;;;;;;;2.47;2.20;;;;;;;23.36;31.54;95544.31;1794337;80;20987;-68
2022/05/02 11:38:17;;;;;;;2.95;2.30;;;;;;;23.50;31.49;95528.06;1795138;80;21015;-68
2022/05/02 11:40:48;;;;;;;3.08;2.70;;;;;;;22.89;30.36;95540.74;1795120;80;21006;-68
2022/05/02 11:43:22;;;;;;;2.87;2.58;;;;;;;22.36;31.65;95540.32;1794420;80;21078;-67
2022/05/02 11:46:20;;;;;;;5.85;2.30;;;;;;;22.45;32.03;95543.27;1794782;80;21512;-68
2022/05/02 11:49:14;;;;;;;5.67;2.05;;;;;;;23.08;30.78;95537.70;1795292;80;21050;-67
2022/05/02 11:51:48;;;;;;;2.75;2.27;;;;;;;23.59;29.85;95530.11;1795462;80;21006;-67
2022/05/02 11:54:29;;;;;;;4.72;2.05;;;;;;;22.87;28.31;95541.81;1795453;80;20979;-67
2022/05/02 11:57:23;;;;;;;3.72;1.90;;;;;;;22.01;27.46;95536.73;1795363;80;21555;-67
2022/05/02 12:00:11;;;;;;;4.62;2.30;;;;;;;21.44;29.16;95532.27;1795092;80;21006;-67
2022/05/02 12:02:48;;;;;;;4.55;2.25;;;;;;;21.00;29.17;95538.54;1795149;80;20994;-67
2022/05/02 12:05:27;;;;;;;5.78;2.30;;;;;;;20.60;29.74;95536.90;1795460;80;21538;-67
2022/05/02 12:08:09;;;;;;;1.90;1.80;;;;;;;20.20;31.45;95535.64;1795401;80;21061;-67
2022/05/02 12:10:47;;;;;;;3.30;2.47;;;;;;;19.94;31.16;95537.14;1795253;80;21674;-67
2022/05/02 12:13:18;;;;;;;3.40;1.85;;;;;;;19.67;30.81;95535.04;1795368;80;21442;-67
2022/05/02 12:16:03;;;;;;;2.02;1.75;;;;;;;19.46;31.50;95533.91;1795230;80;21014;-68
2022/05/02 12:18:53;;;;;;;2.65;1.70;;;;;;;19.36;32.12;95537.17;1795379;80;21033;-67
2022/05/02 12:21:31;;;;;;;2.55;1.95;;;;;;;19.21;31.46;95534.84;1795419;80;20999;-66
2022/05/02 12:24:00;;;;;;;3.22;2.00;;;;;;;19.13;33.10;95530.39;1795514;80;20986;-66
2022/05/02 12:26:28;;;;;;;3.27;2.00;;;;;;;18.98;32.63;95527.57;1795515;80;21468;-66
2022/05/02 12:29:04;;;;;;;3.52;2.20;;;;;;;18.91;32.73;95523.48;1795304;80;20994;-67
2022/05/02 12:31:32;;;;;;;3.72;1.85;;;;;;;18.82;33.46;95523.95;1795111;80;21065;-67
2022/05/02 12:34:12;;;;;;;3.02;2.00;;;;;;;18.75;32.72;95516.75;1794715;80;21075;-67
2022/05/02 12:36:52;;;;;;;3.55;1.98;;;;;;;18.74;33.40;95507.43;1795490;80;21030;-66
2022/05/02 12:39:28;;;;;;;2.33;1.87;;;;;;;18.77;35.38;95508.19;1795380;80;21471;-66
2022/05/02 12:42:18;;;;;;;4.00;2.08;;;;;;;18.80;33.60;95511.17;1795377;80;21558;-66
2022/05/02 12:45:08;;;;;;;2.22;2.02;;;;;;;18.76;31.68;95509.11;1785436;80;20982;-66
2022/05/02 12:47:58;;;;;;;3.65;1.92;;;;;;;18.80;32.99;95499.14;1795405;80;21006;-66